Time;durP1;ratioP1;P1;durP2;ratioP2;P2;SDS_P1;SDS_P2;PMS_P1;PMS_P2;Temp;Humidity;BMP_temperature;BMP_pressure;BME280_temperature;BME280_humidity;BME280_pressure;Samples;Min_cycle;Max_cycle;Signal;HPM_P1;HPM_P2
2022/05/24 00:01:32;;;;;;;2.30;2.20;;;14.40;99.90;;;;;;5108525;28;20659;-80
2022/05/24 00:03:59;;;;;;;1.53;1.43;;;14.40;99.90;;;;;;5108053;28;20485;-81
2022/05/24 00:06:28;;;;;;;3.13;2.00;;;14.40;99.90;;;;;;5108408;28;20435;-79
2022/05/24 00:08:57;;;;;;;0.50;0.40;;;14.40;99.90;;;;;;5098323;28;20450;-81
2022/05/24 00:11:23;;;;;;;2.63;2.43;;;14.40;99.90;;;;;;5110289;28;20432;-80
2022/05/24 00:13:50;;;;;;;1.87;1.03;;;14.40;99.90;;;;;;5107588;28;20496;-80
2022/05/24 00:16:17;;;;;;;2.50;1.93;;;14.40;99.90;;;;;;5103622;28;20438;-81
2022/05/24 00:18:44;;;;;;;0.50;0.40;;;14.40;99.90;;;;;;5096511;28;20448;-81
2022/05/24 00:21:11;;;;;;;2.88;1.80;;;14.50;99.90;;;;;;5096669;28;20435;-82
2022/05/24 00:23:38;;;;;;;3.80;2.40;;;14.50;99.90;;;;;;5095875;28;20217;-83
2022/05/24 00:26:09;;;;;;;2.33;2.20;;;14.50;99.90;;;;;;5095904;28;20439;-82
2022/05/24 00:28:37;;;;;;;0.50;0.30;;;14.50;99.90;;;;;;5096236;28;20475;-81
2022/05/24 00:31:05;;;;;;;4.13;2.10;;;14.50;99.90;;;;;;5095308;28;20619;-83
2022/05/24 00:33:34;;;;;;;2.37;2.23;;;14.50;99.90;;;;;;5095685;28;20463;-83
2022/05/24 00:36:01;;;;;;;1.57;0.77;;;14.60;99.90;;;;;;5094997;28;20443;-84
2022/05/24 00:38:30;;;;;;;0.50;0.40;;;14.50;99.90;;;;;;5099231;28;20439;-84
2022/05/24 00:41:10;;;;;;;0.60;0.50;;;14.50;99.90;;;;;;5099223;28;20449;-83
2022/05/24 00:43:40;;;;;;;0.50;0.30;;;14.60;99.90;;;;;;5099993;28;20462;-82
2022/05/24 00:46:12;;;;;;;0.60;0.60;;;14.60;99.90;;;;;;5099284;28;20708;-84
2022/05/24 00:48:46;;;;;;;1.37;1.37;;;14.60;99.90;;;;;;5099655;28;20466;-83
2022/05/24 00:51:15;;;;;;;3.03;1.40;;;14.60;99.90;;;;;;5098764;28;20438;-82
2022/05/24 00:53:49;;;;;;;4.30;2.20;;;14.60;99.90;;;;;;5099751;28;20474;-82
2022/05/24 00:56:22;;;;;;;3.77;3.27;;;14.50;99.90;;;;;;5100221;28;20423;-82
2022/05/24 00:58:53;;;;;;;6.23;5.53;;;14.40;99.90;;;;;;5099228;28;20432;-81
2022/05/24 01:01:33;;;;;;;2.20;2.10;;;14.40;99.90;;;;;;5099373;28;20432;-82
2022/05/24 01:04:00;;;;;;;0.57;0.57;;;14.30;99.90;;;;;;5098687;28;20474;-83
2022/05/24 01:06:27;;;;;;;0.50;0.40;;;14.30;99.90;;;;;;5099470;28;20439;-81
2022/05/24 01:08:55;;;;;;;0.53;0.40;;;14.30;99.90;;;;;;5098806;28;20482;-82
2022/05/24 01:11:24;;;;;;;1.47;1.37;;;14.30;99.90;;;;;;5099515;28;20435;-83
2022/05/24 01:13:54;;;;;;;2.10;2.00;;;14.30;99.90;;;;;;5098740;28;20474;-83
2022/05/24 01:16:21;;;;;;;2.10;2.00;;;14.30;99.90;;;;;;5099230;28;20439;-83
2022/05/24 01:18:48;;;;;;;3.23;2.93;;;14.20;99.90;;;;;;5098334;28;20431;-80
2022/05/24 01:21:17;;;;;;;12.53;5.27;;;14.20;99.90;;;;;;5098872;28;20439;-82
2022/05/24 01:23:54;;;;;;;2.87;2.10;;;14.20;99.90;;;;;;5098741;28;20494;-82
2022/05/24 01:26:34;;;;;;;0.90;0.70;;;14.20;99.90;;;;;;5098162;28;20439;-83
2022/05/24 01:29:04;;;;;;;0.50;0.40;;;14.20;99.90;;;;;;5099341;28;20463;-84
2022/05/24 01:36:09;;;;;;;2.00;1.90;;;14.20;99.90;;;;;;5098695;28;20439;-82
2022/05/24 01:37:05;;;;;;;4.33;4.00;;;14.20;99.90;;;;;;5098066;28;20429;-83
2022/05/24 01:39:32;;;;;;;0.57;0.50;;;14.20;99.90;;;;;;5098522;28;20435;-83
2022/05/24 01:42:00;;;;;;;2.60;2.50;;;14.20;99.90;;;;;;5098453;28;20463;-83
2022/05/24 01:44:32;;;;;;;0.60;0.40;;;14.10;99.90;;;;;;5098321;28;20821;-83
2022/05/24 01:47:01;;;;;;;2.97;2.70;;;14.20;99.90;;;;;;5098236;28;20427;-82
2022/05/24 01:49:32;;;;;;;2.50;2.40;;;14.20;99.90;;;;;;5097671;28;20442;-83
2022/05/24 01:52:04;;;;;;;3.27;3.07;;;14.20;99.90;;;;;;5097780;28;20466;-82
2022/05/24 01:54:35;;;;;;;1.80;1.70;;;14.20;99.90;;;;;;5097830;28;20438;-83
2022/05/24 01:57:09;;;;;;;3.57;1.43;;;14.10;99.90;;;;;;5097359;28;20789;-82
2022/05/24 01:59:39;;;;;;;1.07;1.07;;;14.20;99.90;;;;;;5097353;28;21112;-82
2022/05/24 02:02:06;;;;;;;4.00;3.80;;;14.20;99.90;;;;;;5097944;28;20451;-82
2022/05/24 02:04:34;;;;;;;1.07;1.07;;;14.10;99.90;;;;;;5097201;28;20446;-82
2022/05/24 02:07:04;;;;;;;4.13;1.77;;;14.10;99.90;;;;;;5097551;28;20494;-82
2022/05/24 02:09:32;;;;;;;8.13;5.20;;;14.10;99.90;;;;;;5096859;28;20468;-82
2022/05/24 02:12:05;;;;;;;6.30;4.40;;;14.10;99.90;;;;;;5097064;28;20462;-82
2022/05/24 02:14:35;;;;;;;5.20;2.60;;;14.10;99.90;;;;;;5096739;28;20435;-83
2022/05/24 02:17:08;;;;;;;4.95;4.35;;;14.10;99.90;;;;;;5096908;28;20447;-82
2022/05/24 02:19:38;;;;;;;0.50;0.40;;;14.10;99.90;;;;;;5096529;28;20186;-82
2022/05/24 02:22:10;;;;;;;5.32;4.07;;;14.10;99.90;;;;;;5097357;28;20242;-82
2022/05/24 02:24:37;;;;;;;0.50;0.40;;;14.00;99.90;;;;;;5097090;28;20614;-82
2022/05/24 02:27:06;;;;;;;3.85;3.05;;;14.00;99.90;;;;;;5096729;28;20465;-81
2022/05/24 02:29:33;;;;;;;3.57;1.73;;;14.00;99.90;;;;;;5096190;28;20209;-82
2022/05/24 02:32:00;;;;;;;8.30;6.50;;;14.00;99.90;;;;;;5096230;28;20462;-81
2022/05/24 02:34:27;;;;;;;0.60;0.60;;;14.00;99.90;;;;;;5095977;28;20442;-81
2022/05/24 02:36:53;;;;;;;1.47;1.40;;;14.00;99.90;;;;;;5096122;28;20446;-83
2022/05/24 02:39:20;;;;;;;0.95;0.65;;;14.00;99.90;;;;;;5095861;28;20440;-82
2022/05/24 02:41:46;;;;;;;1.50;1.40;;;14.00;99.90;;;;;;5096477;28;20193;-82
2022/05/24 02:44:16;;;;;;;0.93;0.70;;;14.00;99.90;;;;;;5095856;28;20455;-81
2022/05/24 02:46:46;;;;;;;2.77;2.50;;;14.10;99.90;;;;;;5096396;28;20208;-82
2022/05/24 02:49:13;;;;;;;2.00;1.90;;;14.10;99.90;;;;;;5095463;28;20472;-81
2022/05/24 02:51:41;;;;;;;0.50;0.50;;;14.10;99.90;;;;;;5096020;28;20432;-82
2022/05/24 02:54:09;;;;;;;1.27;0.80;;;14.10;99.90;;;;;;5095443;28;20794;-82
2022/05/24 02:56:36;;;;;;;2.97;2.70;;;14.20;99.90;;;;;;5096193;28;20443;-82
2022/05/24 02:59:03;;;;;;;1.10;1.10;;;14.10;99.90;;;;;;5094882;28;20466;-83
2022/05/24 03:01:32;;;;;;;0.50;0.40;;;14.10;99.90;;;;;;5096892;28;20450;-82
2022/05/24 03:03:58;;;;;;;1.93;1.83;;;14.10;99.90;;;;;;5095740;28;20459;-82
2022/05/24 03:06:26;;;;;;;3.87;2.67;;;14.00;99.90;;;;;;5096440;28;20813;-82
2022/05/24 03:14:24;;;;;;;4.60;3.40;;;13.90;99.90;;;;;;5103073;22;21040;-78
2022/05/24 03:16:53;;;;;;;0.50;0.40;;;13.90;99.90;;;;;;5051330;28;20437;-78
2022/05/24 03:19:21;;;;;;;7.30;3.93;;;13.90;99.90;;;;;;5052175;28;20560;-78
2022/05/24 03:21:47;;;;;;;2.23;2.13;;;13.80;99.90;;;;;;5047784;28;20446;-78
2022/05/24 03:24:14;;;;;;;1.53;1.43;;;13.70;99.90;;;;;;5031983;28;20462;-78
2022/05/24 03:26:41;;;;;;;0.60;0.60;;;13.60;99.90;;;;;;5032315;28;20434;-79
2022/05/24 03:29:07;;;;;;;8.83;4.77;;;13.50;99.90;;;;;;5031924;28;20785;-78
2022/05/24 03:31:35;;;;;;;0.70;0.70;;;13.50;99.90;;;;;;5032767;28;20449;-76
2022/05/24 03:34:03;;;;;;;5.77;2.20;;;13.40;99.90;;;;;;5032190;28;20458;-78
2022/05/24 03:36:30;;;;;;;0.67;0.63;;;13.30;99.90;;;;;;5031989;28;20437;-78
2022/05/24 03:38:57;;;;;;;0.50;0.40;;;13.30;99.90;;;;;;5031934;28;20549;-78
2022/05/24 03:41:23;;;;;;;1.00;0.90;;;13.20;99.90;;;;;;5032551;28;20935;-78
2022/05/24 03:43:50;;;;;;;0.80;0.80;;;13.10;99.90;;;;;;5032420;28;20460;-79
2022/05/24 03:46:17;;;;;;;3.07;2.77;;;13.10;99.90;;;;;;5032275;28;20442;-78
2022/05/24 03:48:44;;;;;;;0.50;0.40;;;13.10;99.90;;;;;;5031022;28;20438;-78
2022/05/24 03:51:12;;;;;;;0.60;0.60;;;13.00;99.90;;;;;;5032865;28;20446;-77
2022/05/24 03:53:38;;;;;;;2.83;2.63;;;13.00;99.90;;;;;;5034144;28;20472;-77
2022/05/24 03:56:05;;;;;;;1.43;1.13;;;13.00;99.90;;;;;;5032589;28;20436;-79
2022/05/24 03:58:33;;;;;;;2.47;2.25;;;13.00;99.90;;;;;;5030593;28;21021;-79
2022/05/24 04:01:00;;;;;;;0.60;0.60;;;12.90;99.90;;;;;;5031502;28;20241;-78
2022/05/24 04:03:27;;;;;;;1.15;1.05;;;12.90;99.90;;;;;;5031646;28;20219;-78
2022/05/24 04:05:54;;;;;;;0.95;0.95;;;12.90;99.90;;;;;;5031357;28;20198;-79
2022/05/24 04:08:26;;;;;;;2.65;0.98;;;12.90;99.90;;;;;;5032414;28;20576;-79
2022/05/24 04:11:00;;;;;;;0.80;0.80;;;12.90;99.90;;;;;;5033243;28;20222;-78
2022/05/24 04:13:27;;;;;;;0.50;0.50;;;13.00;99.90;;;;;;5035232;28;20262;-78
2022/05/24 04:15:53;;;;;;;0.50;0.40;;;13.00;99.90;;;;;;5035146;28;20442;-79
2022/05/24 04:18:20;;;;;;;0.50;0.40;;;13.00;99.90;;;;;;5035288;28;20226;-78
2022/05/24 04:20:47;;;;;;;0.50;0.40;;;13.00;99.90;;;;;;5035279;28;20441;-78
2022/05/24 04:23:15;;;;;;;0.50;0.50;;;13.00;99.90;;;;;;5035127;28;20218;-77
2022/05/24 04:25:43;;;;;;;0.80;0.80;;;13.00;99.90;;;;;;5034839;28;20480;-77
2022/05/24 04:28:10;;;;;;;1.13;0.90;;;13.10;99.90;;;;;;5035180;28;20195;-79
2022/05/24 04:30:37;;;;;;;1.45;0.85;;;13.10;99.90;;;;;;5035525;28;20571;-78
2022/05/24 04:33:04;;;;;;;0.50;0.33;;;13.10;99.90;;;;;;5034671;28;20219;-79
2022/05/24 04:35:31;;;;;;;2.53;2.33;;;13.20;99.90;;;;;;5034761;28;20437;-78
2022/05/24 04:37:59;;;;;;;1.10;0.73;;;13.20;99.90;;;;;;5034757;28;20559;-78
2022/05/24 04:43:08;;;;;;;0.70;0.70;;;13.30;99.90;;;;;;5034254;28;20243;-78
2022/05/24 04:45:35;;;;;;;1.15;1.15;;;13.40;99.90;;;;;;5035137;28;20446;-78
2022/05/24 04:48:02;;;;;;;1.10;1.00;;;13.40;99.90;;;;;;5034812;28;20223;-79
2022/05/24 04:50:29;;;;;;;1.93;1.90;;;13.40;99.90;;;;;;5035011;28;20525;-77
2022/05/24 04:52:55;;;;;;;1.17;1.07;;;13.40;99.90;;;;;;5034732;28;20465;-78
2022/05/24 04:55:25;;;;;;;2.30;1.00;;;13.30;99.90;;;;;;5035073;28;20511;-79
2022/05/24 04:57:52;;;;;;;0.50;0.40;;;13.30;99.90;;;;;;5034666;28;20609;-79
2022/05/24 05:00:21;;;;;;;2.78;1.42;;;13.20;99.90;;;;;;5034451;28;20473;-79
2022/05/24 05:02:47;;;;;;;0.50;0.40;;;13.20;99.90;;;;;;5034933;28;20581;-79
2022/05/24 05:05:15;;;;;;;0.50;0.40;;;13.20;99.90;;;;;;5034164;28;20438;-78
2022/05/24 05:07:42;;;;;;;0.80;0.80;;;13.10;99.90;;;;;;5034306;28;20473;-77
2022/05/24 05:10:10;;;;;;;0.50;0.40;;;13.10;99.90;;;;;;5034131;28;20434;-78
2022/05/24 05:12:37;;;;;;;3.33;3.03;;;13.10;99.90;;;;;;5033782;28;20441;-77
2022/05/24 05:15:05;;;;;;;9.20;2.93;;;13.10;99.90;;;;;;5034591;28;20438;-78
2022/05/24 05:17:33;;;;;;;0.80;0.80;;;13.10;99.90;;;;;;5059304;28;20440;-78
2022/05/24 05:20:01;;;;;;;0.50;0.50;;;13.20;99.90;;;;;;5061236;28;20479;-79
2022/05/24 05:22:28;;;;;;;0.60;0.60;;;13.20;99.90;;;;;;5067058;28;20432;-79
2022/05/24 05:24:54;;;;;;;0.50;0.40;;;13.20;99.90;;;;;;5063707;28;20519;-79
2022/05/24 05:27:21;;;;;;;2.50;2.30;;;13.20;99.90;;;;;;5063611;28;20197;-79
2022/05/24 05:32:33;;;;;;;0.77;0.70;;;13.30;99.90;;;;;;5067482;28;20275;-79
2022/05/24 05:35:01;;;;;;;1.47;1.37;;;13.20;99.90;;;;;;5057350;28;20198;-78
2022/05/24 05:37:29;;;;;;;0.50;0.40;;;13.20;99.90;;;;;;5054463;28;20437;-77
2022/05/24 05:39:56;;;;;;;0.67;0.67;;;13.10;99.90;;;;;;5053193;28;20706;-78
2022/05/24 05:42:24;;;;;;;0.50;0.40;;;13.10;99.90;;;;;;5055092;28;20437;-78
2022/05/24 05:44:51;;;;;;;0.50;0.30;;;13.10;99.90;;;;;;5053805;28;20452;-79
2022/05/24 05:47:18;;;;;;;0.60;0.45;;;13.10;99.90;;;;;;5053193;28;20441;-78
2022/05/24 05:49:46;;;;;;;0.95;0.70;;;13.00;99.90;;;;;;5053342;28;20198;-78
2022/05/24 05:52:13;;;;;;;0.60;0.50;;;13.00;99.90;;;;;;5053957;28;20199;-78
2022/05/24 05:54:40;;;;;;;1.15;0.63;;;13.00;99.90;;;;;;5054391;28;20219;-78
2022/05/24 05:57:07;;;;;;;0.70;0.70;;;13.00;99.90;;;;;;5053525;28;20195;-78
2022/05/24 05:59:34;;;;;;;1.45;1.35;;;12.90;99.90;;;;;;5052308;28;20472;-79
2022/05/24 06:02:04;;;;;;;0.90;0.80;;;12.90;99.90;;;;;;5053587;28;20194;-78
2022/05/24 06:04:31;;;;;;;0.52;0.43;;;12.80;99.90;;;;;;5040513;28;20945;-79
2022/05/24 06:06:59;;;;;;;1.35;1.25;;;12.70;99.90;;;;;;5054051;28;20222;-78
2022/05/24 06:09:26;;;;;;;0.50;0.50;;;12.60;99.90;;;;;;5053511;28;20195;-78
2022/05/24 06:11:53;;;;;;;5.40;1.58;;;12.60;99.90;;;;;;5053934;28;20664;-79
2022/05/24 06:14:19;;;;;;;0.63;0.57;;;12.50;99.90;;;;;;5053716;28;20316;-79
2022/05/24 06:16:46;;;;;;;0.50;0.40;;;12.40;99.90;;;;;;5053930;28;20213;-79
2022/05/24 06:19:13;;;;;;;0.98;0.85;;;12.40;99.90;;;;;;5053429;28;20210;-79
2022/05/24 06:21:40;;;;;;;5.38;1.58;;;12.30;99.90;;;;;;5053379;28;20576;-77
2022/05/24 06:24:09;;;;;;;0.50;0.40;;;12.30;99.90;;;;;;5054057;28;20222;-79
2022/05/24 06:26:36;;;;;;;0.68;0.60;;;12.20;99.90;;;;;;5053521;28;20190;-79
2022/05/24 06:29:05;;;;;;;0.50;0.40;;;12.20;99.90;;;;;;5052965;28;20205;-79
2022/05/24 06:31:32;;;;;;;0.50;0.40;;;12.10;99.90;;;;;;5053276;28;20778;-79
2022/05/24 06:33:58;;;;;;;0.75;0.55;;;12.10;99.90;;;;;;5052065;28;20217;-78
2022/05/24 06:36:25;;;;;;;0.50;0.40;;;12.00;99.90;;;;;;5052680;28;20201;-78
2022/05/24 06:38:52;;;;;;;1.10;1.05;;;12.00;99.90;;;;;;5053133;28;20211;-78
2022/05/24 06:41:20;;;;;;;1.80;1.70;;;12.00;99.90;;;;;;5053122;28;20209;-78
2022/05/24 06:43:47;;;;;;;0.70;0.60;;;11.90;99.90;;;;;;5053155;28;20214;-77
2022/05/24 06:46:13;;;;;;;0.50;0.40;;;11.90;99.90;;;;;;5052773;28;20713;-78
2022/05/24 06:48:42;;;;;;;0.50;0.40;;;11.80;99.90;;;;;;5052768;28;20220;-78
2022/05/24 06:51:11;;;;;;;1.30;0.68;;;11.90;99.90;;;;;;5053002;28;20659;-79
2022/05/24 06:53:38;;;;;;;0.60;0.50;;;11.80;99.90;;;;;;5052104;28;20242;-77
2022/05/24 06:56:06;;;;;;;1.33;0.75;;;11.80;99.90;;;;;;5053128;28;20225;-79
2022/05/24 06:58:35;;;;;;;0.50;0.40;;;11.80;99.90;;;;;;5051322;28;20296;-79
2022/05/24 07:03:47;;;;;;;0.50;0.40;;;11.80;99.90;;;;;;5052400;28;20259;-79
2022/05/24 07:06:15;;;;;;;0.70;0.60;;;11.90;99.90;;;;;;5052197;28;20243;-78
2022/05/24 07:08:42;;;;;;;0.98;0.98;;;11.90;99.90;;;;;;5051845;28;20283;-78
2022/05/24 07:11:10;;;;;;;0.50;0.40;;;12.00;99.90;;;;;;5052620;28;20201;-79
2022/05/24 07:13:39;;;;;;;0.50;0.40;;;12.00;99.90;;;;;;5052359;28;20226;-78
2022/05/24 07:16:07;;;;;;;1.00;0.60;;;12.10;99.90;;;;;;5052542;28;20197;-79
2022/05/24 07:18:33;;;;;;;1.33;1.23;;;12.20;99.90;;;;;;5051696;28;20198;-78
2022/05/24 07:21:00;;;;;;;0.73;0.73;;;12.20;99.90;;;;;;5052390;28;20587;-78
2022/05/24 07:23:27;;;;;;;0.65;0.65;;;12.10;99.90;;;;;;5051680;28;20213;-77
2022/05/24 07:25:56;;;;;;;1.60;1.50;;;12.30;99.90;;;;;;5051702;28;20608;-78
2022/05/24 07:28:24;;;;;;;1.55;1.45;;;12.30;99.90;;;;;;5051298;28;20194;-77
2022/05/24 07:30:52;;;;;;;0.60;0.57;;;12.40;99.90;;;;;;5051161;28;20194;-78
2022/05/24 07:33:18;;;;;;;2.70;1.27;;;12.50;99.90;;;;;;5051521;28;20226;-78
2022/05/24 07:35:45;;;;;;;0.70;0.70;;;12.60;99.90;;;;;;5051125;28;20209;-78
2022/05/24 07:38:13;;;;;;;1.50;1.40;;;12.70;99.90;;;;;;5051349;28;20198;-78
2022/05/24 07:46:14;;;;;;;3.33;0.80;;;14.00;99.90;;;;;;5051063;28;20397;-77
2022/05/24 07:48:41;;;;;;;2.10;0.60;;;15.20;99.90;;;;;;5051100;28;20414;-78
2022/05/24 07:51:08;;;;;;;0.60;0.60;;;16.20;99.90;;;;;;5051862;28;20757;-77
2022/05/24 07:53:36;;;;;;;1.43;1.33;;;16.70;99.90;;;;;;5051075;28;20465;-78
2022/05/24 07:56:03;;;;;;;1.23;0.50;;;17.60;99.90;;;;;;5051112;28;20778;-78
2022/05/24 07:58:31;;;;;;;1.97;1.87;;;17.90;99.90;;;;;;5050890;28;20436;-78
2022/05/24 08:00:58;;;;;;;0.50;0.30;;;18.60;99.90;;;;;;5051576;28;20504;-78
2022/05/24 08:03:27;;;;;;;0.80;0.50;;;18.40;99.90;;;;;;5051137;28;20461;-75
2022/05/24 08:05:54;;;;;;;1.43;1.33;;;17.40;99.90;;;;;;5051373;28;20433;-77
2022/05/24 08:08:21;;;;;;;3.37;0.67;;;16.90;99.90;;;;;;5051066;28;20446;-77
2022/05/24 08:10:48;;;;;;;0.50;0.40;;;16.10;99.90;;;;;;5051467;28;20470;-78
2022/05/24 08:13:19;;;;;;;0.80;0.80;;;16.10;99.90;;;;;;5051388;28;20496;-77
2022/05/24 08:15:46;;;;;;;0.70;0.70;;;16.10;99.90;;;;;;5051276;28;20470;-78
2022/05/24 08:18:13;;;;;;;0.73;0.50;;;16.30;99.90;;;;;;5051055;28;20970;-78
2022/05/24 08:20:41;;;;;;;0.60;0.60;;;16.60;99.90;;;;;;5051014;28;20977;-77
2022/05/24 08:23:08;;;;;;;1.50;1.40;;;17.50;99.90;;;;;;5051353;28;20532;-77
2022/05/24 08:25:35;;;;;;;1.57;0.60;;;17.80;99.90;;;;;;5050734;28;20449;-77
2022/05/24 08:28:05;;;;;;;0.50;0.30;;;17.60;99.90;;;;;;5050733;28;20444;-77
2022/05/24 08:30:34;;;;;;;0.50;0.30;;;17.60;99.90;;;;;;5050365;28;20436;-77
2022/05/24 08:33:04;;;;;;;0.50;0.40;;;17.80;99.90;;;;;;5051388;28;20464;-77
2022/05/24 08:35:32;;;;;;;0.90;0.90;;;17.70;99.90;;;;;;5050278;28;20549;-77
2022/05/24 08:38:00;;;;;;;2.00;1.90;;;17.60;99.90;;;;;;5050925;28;20451;-77
2022/05/24 08:40:27;;;;;;;0.50;0.30;;;17.80;99.90;;;;;;5050671;28;20492;-78
2022/05/24 08:43:23;;;;;;;1.07;0.63;;;18.30;99.90;;;;;;5051415;28;20464;-78
2022/05/24 08:48:41;;;;;;;0.80;0.80;;;19.50;99.90;;;;;;5051059;28;20401;-78
2022/05/24 08:51:13;;;;;;;1.93;1.03;;;18.70;99.90;;;;;;5050803;28;20429;-77
2022/05/24 08:53:46;;;;;;;1.27;1.13;;;18.10;99.90;;;;;;5051320;28;20461;-76
2022/05/24 08:56:18;;;;;;;2.03;1.13;;;17.10;99.90;;;;;;5051028;28;20815;-77
2022/05/24 08:58:50;;;;;;;1.07;0.97;;;16.30;99.90;;;;;;5053778;28;20520;-77
2022/05/24 09:01:21;;;;;;;0.50;0.40;;;15.50;99.90;;;;;;5054434;28;20478;-77
2022/05/24 09:03:47;;;;;;;0.50;0.40;;;15.10;99.90;;;;;;5054593;28;20555;-78
2022/05/24 09:06:29;;;;;;;0.60;0.53;;;14.90;99.90;;;;;;5053964;28;20510;-77
2022/05/24 09:09:14;;;;;;;1.23;0.77;;;14.90;99.90;;;;;;5049671;28;20847;-76
2022/05/24 09:11:52;;;;;;;0.50;0.40;;;14.90;99.90;;;;;;5048709;28;20981;-77
2022/05/24 09:14:29;;;;;;;0.50;0.40;;;15.00;99.90;;;;;;5053283;28;20484;-77
2022/05/24 09:17:01;;;;;;;0.50;0.40;;;15.10;99.90;;;;;;5053642;28;20428;-76
2022/05/24 09:19:34;;;;;;;0.70;0.50;;;15.10;99.90;;;;;;5053664;28;20448;-78
2022/05/24 09:22:02;;;;;;;4.97;1.90;;;14.80;99.90;;;;;;5053623;28;20432;-78
2022/05/24 09:24:42;;;;;;;0.60;0.50;;;14.60;99.90;;;;;;5053511;28;20458;-78
2022/05/24 09:27:16;;;;;;;2.10;0.93;;;14.50;99.90;;;;;;5053063;28;20437;-77
2022/05/24 09:29:59;;;;;;;1.03;1.03;;;14.30;99.90;;;;;;5053751;28;20433;-79
2022/05/24 09:32:34;;;;;;;0.93;0.60;;;14.50;99.90;;;;;;5053150;28;20534;-77
2022/05/24 09:35:05;;;;;;;1.13;0.47;;;15.50;99.90;;;;;;5053195;28;20438;-78
2022/05/24 09:37:32;;;;;;;1.20;1.20;;;15.80;99.90;;;;;;5053012;28;20461;-74
2022/05/24 09:40:04;;;;;;;0.60;0.60;;;15.60;99.90;;;;;;5054015;28;20477;-78
2022/05/24 09:42:33;;;;;;;0.50;0.37;;;15.30;99.90;;;;;;5053445;28;20445;-77
2022/05/24 09:45:02;;;;;;;0.60;0.50;;;15.30;99.90;;;;;;5053353;28;20460;-79
2022/05/24 09:47:32;;;;;;;1.27;1.17;;;15.30;99.90;;;;;;5053563;28;20451;-78
2022/05/24 09:50:22;;;;;;;0.50;0.40;;;15.20;99.90;;;;;;5053883;28;20961;-77
2022/05/24 09:53:14;;;;;;;0.50;0.33;;;15.40;99.90;;;;;;5054263;28;20573;-78
2022/05/24 09:55:46;;;;;;;0.63;0.63;;;15.40;99.90;;;;;;5053722;28;20426;-78
2022/05/24 09:58:22;;;;;;;1.00;0.50;;;15.50;99.90;;;;;;5053007;28;20444;-78
2022/05/24 10:00:51;;;;;;;5.20;1.00;;;15.70;99.90;;;;;;5054039;28;20461;-78
2022/05/24 10:03:23;;;;;;;0.70;0.60;;;16.30;99.90;;;;;;5053522;28;20479;-77
2022/05/24 10:06:07;;;;;;;0.80;0.50;;;18.20;99.90;;;;;;5053837;28;20429;-78
2022/05/24 10:08:40;;;;;;;0.60;0.50;;;18.80;99.90;;;;;;5053077;28;20430;-77
2022/05/24 10:11:19;;;;;;;0.83;0.70;;;18.10;99.90;;;;;;5053492;28;20464;-77
2022/05/24 10:13:54;;;;;;;1.43;0.67;;;17.60;99.90;;;;;;5053453;28;20476;-78
2022/05/24 10:16:28;;;;;;;0.50;0.40;;;17.20;99.90;;;;;;5053414;28;20835;-79
2022/05/24 10:19:31;;;;;;;0.77;0.50;;;17.20;99.90;;;;;;5053567;28;20425;-78
2022/05/24 10:22:04;;;;;;;0.60;0.60;;;18.50;99.90;;;;;;5053159;28;20421;-79
2022/05/24 10:24:44;;;;;;;1.93;1.43;;;20.30;99.90;;;;;;5053376;28;20457;-78
2022/05/24 10:27:23;;;;;;;2.23;0.60;;;21.40;99.90;;;;;;5053737;28;20459;-79
2022/05/24 10:29:55;;;;;;;0.60;0.43;;;21.20;99.90;;;;;;5053471;28;20512;-78
2022/05/24 10:38:28;;;;;;;0.50;0.30;;;22.00;97.60;;;;;;5052322;28;20938;-78
2022/05/24 10:41:07;;;;;;;0.50;0.30;;;20.90;99.90;;;;;;5053175;28;20824;-77
2022/05/24 10:44:00;;;;;;;0.50;0.30;;;19.90;99.90;;;;;;5053228;28;20488;-78
2022/05/24 10:46:34;;;;;;;0.60;0.57;;;19.10;99.90;;;;;;5050314;28;20433;-78
2022/05/24 10:49:07;;;;;;;0.50;0.40;;;20.00;99.90;;;;;;5052712;28;20487;-78
2022/05/24 10:51:39;;;;;;;0.50;0.40;;;21.30;99.90;;;;;;5053467;28;20787;-78
2022/05/24 10:54:12;;;;;;;0.50;0.37;;;21.70;99.90;;;;;;5054426;28;20472;-77
2022/05/24 10:56:44;;;;;;;0.60;0.57;;;21.80;99.90;;;;;;5053680;28;20413;-77
2022/05/24 10:59:21;;;;;;;0.90;0.83;;;22.20;99.90;;;;;;5052637;28;20422;-78
2022/05/24 11:01:54;;;;;;;0.70;0.57;;;22.30;95.50;;;;;;5052398;28;20978;-78
2022/05/24 11:04:26;;;;;;;0.50;0.30;;;22.10;94.40;;;;;;5053630;28;20538;-78
2022/05/24 11:06:59;;;;;;;0.60;0.60;;;22.20;91.20;;;;;;5052504;28;20425;-78
2022/05/24 11:09:29;;;;;;;0.93;0.40;;;22.50;87.70;;;;;;5052721;28;20474;-79
2022/05/24 11:12:00;;;;;;;0.60;0.40;;;22.00;83.70;;;;;;5053118;28;20429;-79
2022/05/24 11:14:34;;;;;;;0.70;0.60;;;21.80;89.40;;;;;;5052954;28;20461;-77
2022/05/24 11:17:01;;;;;;;0.70;0.60;;;21.40;85.30;;;;;;5052627;28;20425;-77
2022/05/24 11:19:31;;;;;;;0.60;0.40;;;20.50;88.40;;;;;;5052644;28;20437;-79
2022/05/24 11:22:05;;;;;;;0.50;0.30;;;20.50;89.50;;;;;;5052008;28;20472;-79
2022/05/24 11:24:40;;;;;;;0.50;0.40;;;20.80;89.90;;;;;;5053033;28;20465;-78
2022/05/24 11:27:11;;;;;;;3.33;0.50;;;21.60;86.00;;;;;;5052251;28;20453;-79
2022/05/24 11:29:46;;;;;;;0.60;0.60;;;21.80;81.30;;;;;;5052247;28;20420;-78
2022/05/24 11:32:20;;;;;;;0.57;0.40;;;22.20;82.00;;;;;;5052116;28;20902;-78
2022/05/24 11:34:59;;;;;;;0.50;0.40;;;22.20;76.20;;;;;;5052572;28;20464;-78
2022/05/24 11:37:29;;;;;;;0.50;0.40;;;21.90;77.00;;;;;;5052209;28;20437;-78
2022/05/24 11:39:56;;;;;;;1.53;1.13;;;22.30;78.50;;;;;;5051872;28;20441;-79
2022/05/24 11:42:43;;;;;;;0.50;0.30;;;22.80;76.20;;;;;;5053276;28;20437;-79
2022/05/24 11:45:55;;;;;;;1.13;0.77;;;23.30;77.90;;;;;;5052301;28;20443;-79
2022/05/24 11:48:42;;;;;;;2.20;1.17;;;23.30;76.90;;;;;;5015952;28;20453;-78
2022/05/24 11:51:32;;;;;;;1.27;0.70;;;23.00;78.90;;;;;;5052292;28;20432;-78
2022/05/24 11:54:00;;;;;;;0.50;0.40;;;23.20;76.80;;;;;;5052190;28;20819;-79
2022/05/24 11:56:28;;;;;;;0.50;0.40;;;22.50;76.20;;;;;;5052192;28;20439;-77
2022/05/24 11:58:58;;;;;;;0.50;0.30;;;21.50;80.80;;;;;;5052128;28;20795;-78
2022/05/24 12:01:45;;;;;;;0.50;0.40;;;21.50;84.60;;;;;;5052121;28;20465;-77
2022/05/24 12:10:35;;;;;;;0.50;0.30;;;20.10;95.90;;;;;;5051740;28;20412;-78
2022/05/24 12:13:30;;;;;;;0.50;0.30;;;19.70;99.90;;;;;;5052178;28;20469;-79
2022/05/24 12:15:59;;;;;;;0.70;0.60;;;19.30;99.90;;;;;;5052378;28;20779;-78
2022/05/24 12:18:40;;;;;;;0.50;0.40;;;18.80;99.90;;;;;;5051727;28;20787;-78
2022/05/24 12:21:09;;;;;;;0.50;0.40;;;18.40;99.90;;;;;;5052015;28;20497;-78
2022/05/24 12:23:40;;;;;;;0.50;0.33;;;18.20;99.90;;;;;;5052207;28;20806;-76
2022/05/24 12:26:08;;;;;;;0.70;0.60;;;17.80;99.90;;;;;;5052288;28;20424;-78
2022/05/24 12:28:49;;;;;;;0.50;0.40;;;17.60;99.90;;;;;;5050936;28;20937;-77
2022/05/24 12:31:26;;;;;;;0.50;0.40;;;17.30;99.90;;;;;;5052874;28;20894;-79
2022/05/24 12:33:55;;;;;;;0.50;0.40;;;17.50;99.90;;;;;;5056453;28;20456;-78
2022/05/24 12:36:29;;;;;;;0.50;0.40;;;18.40;99.90;;;;;;5055707;28;20953;-78
2022/05/24 12:39:03;;;;;;;0.60;0.40;;;19.50;99.90;;;;;;5054197;28;20474;-77
2022/05/24 12:41:34;;;;;;;0.50;0.30;;;20.40;99.90;;;;;;5055931;28;20456;-79
2022/05/24 12:44:04;;;;;;;0.50;0.40;;;21.40;99.90;;;;;;5055600;28;20460;-79
2022/05/24 12:46:33;;;;;;;0.50;0.40;;;22.60;96.40;;;;;;5058639;28;20433;-78
2022/05/24 12:49:04;;;;;;;0.60;0.40;;;21.60;86.40;;;;;;5055193;28;20874;-78
2022/05/24 12:51:33;;;;;;;0.50;0.40;;;21.50;89.80;;;;;;5054770;28;20437;-78
2022/05/24 12:54:14;;;;;;;0.50;0.37;;;21.90;86.80;;;;;;5055802;28;20838;-78
2022/05/24 12:56:52;;;;;;;0.60;0.50;;;21.80;85.90;;;;;;5055597;28;20417;-79
2022/05/24 12:59:18;;;;;;;0.50;0.30;;;21.50;86.60;;;;;;5055136;28;20795;-78
2022/05/24 13:01:45;;;;;;;0.60;0.57;;;21.10;86.50;;;;;;5055178;28;20602;-78
2022/05/24 13:04:16;;;;;;;0.70;0.60;;;21.10;84.00;;;;;;5054789;28;20978;-79
2022/05/24 13:06:45;;;;;;;0.50;0.40;;;21.00;85.70;;;;;;5055081;28;20441;-78
2022/05/24 13:09:15;;;;;;;0.50;0.30;;;21.00;85.30;;;;;;5055361;28;20437;-79
2022/05/24 13:11:43;;;;;;;0.50;0.40;;;20.60;89.60;;;;;;5055318;28;20428;-78
2022/05/24 13:14:15;;;;;;;0.50;0.30;;;20.30;90.60;;;;;;5054949;28;20469;-78
2022/05/24 13:16:42;;;;;;;0.50;0.40;;;20.90;93.60;;;;;;5055571;28;20420;-79
2022/05/24 13:19:10;;;;;;;0.60;0.40;;;21.80;84.90;;;;;;5054553;28;20500;-78
2022/05/24 13:21:37;;;;;;;0.60;0.57;;;21.40;78.60;;;;;;5056317;28;20469;-77
2022/05/24 13:24:10;;;;;;;0.50;0.30;;;20.80;78.90;;;;;;5055725;28;20959;-77
2022/05/24 13:26:37;;;;;;;0.50;0.30;;;21.10;83.20;;;;;;5055480;28;20400;-77
2022/05/24 13:29:24;;;;;;;0.60;0.50;;;21.50;85.90;;;;;;5056066;28;20436;-78
2022/05/24 13:34:36;;;;;;;0.50;0.30;;;21.30;83.10;;;;;;5055001;28;20432;-78
2022/05/24 13:37:06;;;;;;;0.50;0.30;;;21.30;85.80;;;;;;5055537;28;20495;-78
2022/05/24 13:39:53;;;;;;;0.50;0.30;;;21.50;83.30;;;;;;5058555;28;20457;-79
2022/05/24 13:42:28;;;;;;;0.50;0.40;;;21.00;83.80;;;;;;5055970;28;20456;-79
2022/05/24 13:45:08;;;;;;;0.50;0.40;;;20.80;82.80;;;;;;5049141;28;20457;-79